createdAt,value
2022-08-08T00:00:53.278Z,3.10
2022-08-08T00:05:43.884Z,2.83
2022-08-08T00:11:18.961Z,2.50
2022-08-08T00:16:29.790Z,2.70
2022-08-08T00:21:43.454Z,2.70
2022-08-08T00:27:08.953Z,2.70
2022-08-08T00:32:34.379Z,2.63
2022-08-08T00:38:01.892Z,3.40
2022-08-08T00:43:59.392Z,3.20
2022-08-08T00:50:21.662Z,3.20
2022-08-08T00:56:05.244Z,3.43
2022-08-08T01:01:37.377Z,3.70
2022-08-08T01:07:55.335Z,3.93
2022-08-08T01:13:53.018Z,3.30
2022-08-08T01:20:02.894Z,3.23
2022-08-08T01:25:54.148Z,3.27
2022-08-08T01:38:01.414Z,3.03
2022-08-08T01:43:20.763Z,3.10
2022-08-08T01:48:46.380Z,3.50
2022-08-08T01:54:57.546Z,3.20
2022-08-08T02:00:07.062Z,2.90
2022-08-08T02:05:58.848Z,3.10
2022-08-08T02:11:23.394Z,3.10
2022-08-08T02:16:40.741Z,3.17
2022-08-08T02:22:18.681Z,3.50
2022-08-08T02:27:42.583Z,3.53
2022-08-08T02:33:10.602Z,3.30
2022-08-08T02:38:50.549Z,3.50
2022-08-08T02:44:57.194Z,3.70
2022-08-08T02:50:40.593Z,3.60
2022-08-08T02:56:32.539Z,3.80
2022-08-08T03:02:08.902Z,3.37
2022-08-08T03:07:58.503Z,3.30
2022-08-08T03:15:59.619Z,3.20
2022-08-08T03:19:39.146Z,3.33
2022-08-08T03:24:57.296Z,3.47
2022-08-08T03:30:10.931Z,4.23
2022-08-08T03:35:30.358Z,3.90
2022-08-08T03:42:11.743Z,3.57
2022-08-08T03:46:47.405Z,3.27
2022-08-08T03:51:54.601Z,3.13
2022-08-08T03:58:31.130Z,3.07
2022-08-08T04:02:36.615Z,3.33
2022-08-08T04:07:58.219Z,3.03
2022-08-08T04:13:17.494Z,3.40
2022-08-08T04:18:23.321Z,3.30
2022-08-08T04:23:33.142Z,3.13
2022-08-08T04:34:15.519Z,3.13
2022-08-08T04:40:06.115Z,3.77
2022-08-08T04:44:49.148Z,4.10
2022-08-08T04:55:15.424Z,3.70
2022-08-08T05:00:21.400Z,4.10
2022-08-08T05:21:59.611Z,4.10
2022-08-08T05:55:19.417Z,4.40
2022-08-08T06:11:21.098Z,3.67
2022-08-08T06:16:53.434Z,3.87
2022-08-08T06:44:24.935Z,3.73
2022-08-08T09:38:21.142Z,3.10
2022-08-08T09:44:05.062Z,2.80
2022-08-08T09:49:40.972Z,2.87
2022-08-08T09:54:46.610Z,2.80
2022-08-08T10:16:53.364Z,2.57
2022-08-08T10:44:41.401Z,2.37
2022-08-08T10:50:01.659Z,2.57
2022-08-08T10:55:09.149Z,2.67
2022-08-08T11:00:15.815Z,2.63
2022-08-08T11:05:38.954Z,2.57
2022-08-08T11:10:42.922Z,2.43
2022-08-08T11:15:58.926Z,2.43
2022-08-08T11:21:08.977Z,3.03
2022-08-08T11:26:20.960Z,2.50
2022-08-08T11:31:46.674Z,2.83
2022-08-08T11:36:52.765Z,2.70
2022-08-08T11:42:09.128Z,2.93
2022-08-08T11:47:17.327Z,2.90
2022-08-08T11:52:27.354Z,2.83
2022-08-08T11:57:35.284Z,2.70
2022-08-08T12:02:51.135Z,2.50
2022-08-08T12:07:56.920Z,3.00
2022-08-08T12:13:05.724Z,2.73
2022-08-08T12:18:21.492Z,3.20
2022-08-08T12:23:43.034Z,3.20
2022-08-08T12:28:57.560Z,2.67
2022-08-08T12:34:03.846Z,2.70
2022-08-08T12:39:07.718Z,2.90
2022-08-08T12:44:32.332Z,2.78
2022-08-08T12:49:43.990Z,2.35
2022-08-08T12:54:49.171Z,2.60
2022-08-08T13:00:06.247Z,2.88
2022-08-08T13:06:04.202Z,2.42
2022-08-08T13:10:56.108Z,2.08
2022-08-08T13:16:19.810Z,2.00
2022-08-08T13:21:25.339Z,2.00
2022-08-08T13:26:40.270Z,2.17
2022-08-08T13:31:50.964Z,1.90
2022-08-08T13:36:58.513Z,2.10
2022-08-08T13:42:02.912Z,2.38
2022-08-08T13:47:07.216Z,2.20
2022-08-08T13:52:23.157Z,2.22
2022-08-08T13:58:00.769Z,2.63
2022-08-08T14:03:26.697Z,1.90
2022-08-08T14:08:30.329Z,2.08
2022-08-08T14:14:00.246Z,1.98
2022-08-08T14:19:10.703Z,2.20
2022-08-08T14:24:31.286Z,2.00
2022-08-08T14:29:39.364Z,2.33
2022-08-08T14:34:43.763Z,2.28
2022-08-08T14:40:06.562Z,2.05
2022-08-08T14:45:12.327Z,1.90
2022-08-08T14:50:37.681Z,2.00
2022-08-08T14:55:43.890Z,1.85
2022-08-08T15:00:50.264Z,2.20
2022-08-08T15:05:57.842Z,1.63
2022-08-08T15:11:04.839Z,2.03
2022-08-08T15:16:12.237Z,2.30
2022-08-08T15:21:18.619Z,1.80
2022-08-08T15:26:25.710Z,1.90
2022-08-08T15:32:18.148Z,1.92
2022-08-08T15:36:55.774Z,1.73
2022-08-08T15:42:01.003Z,1.85
2022-08-08T15:47:05.081Z,1.80
2022-08-08T15:52:13.261Z,2.08
2022-08-08T15:57:18.715Z,1.70
2022-08-08T16:02:22.415Z,2.22
2022-08-08T16:07:39.207Z,1.83
2022-08-08T16:13:03.375Z,2.15
2022-08-08T16:18:21.246Z,2.08
2022-08-08T16:23:31.926Z,2.00
2022-08-08T16:28:38.195Z,1.85
2022-08-08T16:33:58.276Z,1.77
2022-08-08T16:39:09.864Z,2.00
2022-08-08T16:44:33.708Z,1.65
2022-08-08T16:49:38.800Z,1.80
2022-08-08T16:55:04.692Z,1.95
2022-08-08T17:00:51.520Z,1.80
2022-08-08T17:05:58.849Z,1.92
2022-08-08T17:11:12.665Z,1.70
2022-08-08T17:16:24.316Z,2.00
2022-08-08T17:21:28.343Z,1.70
2022-08-08T17:26:37.429Z,1.77
2022-08-08T17:31:46.207Z,2.08
2022-08-08T17:37:00.800Z,2.00
2022-08-08T17:42:07.751Z,1.90
2022-08-08T17:47:16.301Z,1.63
2022-08-08T17:52:31.339Z,2.00
2022-08-08T17:57:41.147Z,2.00
2022-08-08T18:03:02.068Z,1.77
2022-08-08T18:08:24.167Z,1.90
2022-08-08T18:13:41.402Z,2.00
2022-08-08T18:18:52.978Z,1.93
2022-08-08T18:24:17.207Z,2.00
2022-08-08T18:29:29.465Z,1.63
2022-08-08T18:35:02.187Z,1.87
2022-08-08T18:40:19.483Z,1.77
2022-08-08T18:46:00.915Z,2.07
2022-08-08T18:51:03.861Z,1.80
2022-08-08T18:56:08.404Z,1.70
2022-08-08T19:02:25.186Z,1.60
2022-08-08T19:06:37.735Z,1.83
2022-08-08T19:11:46.678Z,2.07
2022-08-08T19:16:54.093Z,1.90
2022-08-08T19:22:03.852Z,1.90
2022-08-08T19:27:10.686Z,1.90
2022-08-08T19:32:19.594Z,1.80
2022-08-08T19:37:43.303Z,1.60
2022-08-08T19:42:51.820Z,1.67
2022-08-08T19:47:57.896Z,2.00
2022-08-08T19:53:04.085Z,2.07
2022-08-08T20:16:07.495Z,1.80
2022-08-08T20:32:28.594Z,2.27
2022-08-08T21:11:06.910Z,2.10
2022-08-08T21:28:06.362Z,1.97
2022-08-08T21:32:52.158Z,2.13
2022-08-08T21:43:20.407Z,1.90
2022-08-08T21:48:35.287Z,2.00
2022-08-08T21:54:31.738Z,2.23
2022-08-08T22:16:20.120Z,2.43
2022-08-08T23:02:00.766Z,2.90
2022-08-08T23:06:39.959Z,2.77
2022-08-08T23:27:54.625Z,2.77
2022-08-08T23:32:59.980Z,2.73
